createdAt,value
2023-03-23T15:57:53.942Z,22.20
2023-03-23T16:00:25.959Z,17.02
2023-03-23T16:02:58.677Z,19.33
2023-03-23T16:05:27.840Z,23.35
2023-03-23T16:07:56.501Z,13.65
2023-03-23T16:10:26.754Z,14.30
2023-03-23T16:12:55.391Z,15.75
2023-03-23T16:15:24.836Z,20.23
2023-03-23T16:17:53.629Z,10.95
2023-03-23T16:20:24.299Z,12.98
2023-03-23T16:22:53.360Z,16.80
2023-03-23T16:25:22.036Z,11.45
2023-03-23T16:27:52.370Z,8.82
2023-03-23T16:30:22.717Z,10.43
2023-03-23T16:32:54.108Z,11.55
2023-03-23T16:35:24.336Z,10.77
2023-03-23T16:38:07.799Z,12.73
2023-03-23T16:43:09.151Z,10.73
2023-03-23T16:45:38.803Z,11.80
2023-03-23T16:48:09.312Z,10.98
2023-03-23T16:50:39.430Z,11.25
2023-03-23T16:53:08.601Z,7.72
2023-03-23T16:55:37.577Z,3.45
2023-03-23T17:00:40.591Z,11.75
2023-03-23T17:03:11.343Z,5.03
2023-03-23T17:05:40.001Z,6.95
2023-03-23T17:08:08.428Z,5.80
2023-03-23T17:13:27.948Z,7.97
2023-03-23T17:15:57.738Z,6.78
2023-03-23T17:18:29.051Z,5.22
2023-03-23T17:20:58.825Z,8.23
2023-03-23T17:23:27.240Z,6.72
2023-03-23T17:25:55.582Z,9.30
2023-03-23T17:28:25.095Z,8.48
2023-03-23T17:30:53.946Z,11.95
2023-03-23T17:33:22.127Z,6.82
2023-03-23T17:35:52.536Z,5.88
2023-03-23T17:38:20.933Z,4.32
2023-03-23T17:40:49.096Z,9.27
2023-03-23T17:43:17.638Z,8.98
2023-03-23T17:45:47.290Z,9.63
2023-03-23T17:48:16.088Z,8.45
2023-03-23T17:50:48.130Z,7.38
2023-03-23T17:53:18.572Z,5.53
2023-03-23T17:55:47.343Z,10.05
2023-03-23T17:58:16.761Z,9.10
2023-03-23T18:00:45.142Z,8.40
2023-03-23T18:03:14.226Z,6.53
2023-03-23T18:05:42.761Z,7.70
2023-03-23T18:08:12.208Z,9.50
2023-03-23T18:10:42.713Z,7.82
2023-03-23T18:13:11.107Z,6.22
2023-03-23T18:15:39.232Z,8.40
2023-03-23T18:18:07.755Z,10.10
2023-03-23T18:20:36.129Z,7.50
2023-03-23T18:23:04.698Z,10.35
2023-03-23T18:25:32.923Z,10.85
2023-03-23T18:28:06.099Z,9.85
2023-03-23T18:30:35.813Z,8.07
2023-03-23T18:33:05.543Z,8.30
2023-03-23T18:35:34.108Z,8.05
2023-03-23T18:38:22.280Z,6.97
2023-03-23T18:40:50.957Z,11.27
2023-03-23T18:43:20.644Z,8.30
2023-03-23T18:45:51.853Z,7.72
2023-03-23T18:48:20.639Z,5.20
2023-03-23T18:50:49.147Z,11.27
2023-03-23T18:53:19.316Z,8.48
2023-03-23T18:55:48.892Z,6.78
2023-03-23T18:58:18.135Z,6.30
2023-03-23T19:00:49.915Z,7.50
2023-03-23T19:03:18.108Z,9.98
2023-03-23T19:05:46.971Z,8.15
2023-03-23T19:08:15.981Z,7.20
2023-03-23T19:10:44.862Z,6.93
2023-03-23T19:13:13.186Z,8.73
2023-03-23T19:15:41.953Z,7.38
2023-03-23T19:18:11.701Z,7.15
2023-03-23T19:21:09.691Z,10.15
2023-03-23T19:23:30.210Z,6.45
2023-03-23T19:25:58.434Z,6.25
2023-03-23T19:33:49.316Z,7.63
2023-03-23T19:36:18.488Z,7.70
2023-03-23T19:38:46.823Z,8.88
2023-03-23T19:41:15.623Z,6.57
2023-03-23T19:43:44.697Z,7.43
2023-03-23T19:46:14.156Z,7.88
2023-03-23T19:48:43.105Z,10.73
2023-03-23T19:51:21.271Z,8.82
2023-03-23T19:53:50.735Z,8.65
2023-03-23T19:56:21.781Z,7.35
2023-03-23T19:58:50.679Z,9.70
2023-03-23T20:01:19.367Z,8.80
2023-03-23T20:03:48.527Z,8.50
2023-03-23T20:06:18.359Z,5.63
2023-03-23T20:08:48.860Z,8.52
2023-03-23T20:11:19.925Z,12.05
2023-03-23T20:13:49.239Z,7.70
2023-03-23T20:16:18.950Z,10.35
2023-03-23T20:18:47.720Z,8.40
2023-03-23T20:21:20.166Z,10.85
2023-03-23T20:23:50.096Z,9.68
2023-03-23T20:26:22.031Z,10.60
2023-03-23T20:28:52.446Z,10.05
2023-03-23T20:31:24.260Z,13.38
2023-03-23T20:34:01.969Z,11.77
2023-03-23T20:36:35.140Z,11.23
2023-03-23T20:39:05.810Z,12.85
2023-03-23T20:41:36.045Z,9.50
2023-03-23T20:44:05.815Z,10.55
2023-03-23T20:46:34.695Z,11.93
2023-03-23T20:49:05.467Z,13.10
2023-03-23T20:51:35.638Z,12.32
2023-03-23T20:54:05.760Z,14.10
2023-03-23T20:56:56.229Z,13.15
2023-03-23T20:59:24.593Z,10.93
2023-03-23T21:01:55.314Z,13.98
2023-03-23T21:04:27.689Z,13.10
2023-03-23T21:06:57.920Z,11.07
2023-03-23T21:09:26.488Z,13.65
2023-03-23T21:11:55.457Z,15.43
2023-03-23T21:14:25.482Z,12.35
2023-03-23T21:16:54.049Z,11.70
2023-03-23T21:22:29.217Z,13.68
2023-03-23T21:24:59.056Z,12.98
2023-03-23T21:27:27.306Z,12.20
2023-03-23T21:29:59.684Z,13.38
2023-03-23T21:32:28.808Z,12.82
2023-03-23T21:35:02.495Z,20.08
2023-03-23T21:37:32.095Z,12.85
2023-03-23T21:40:00.393Z,17.30
2023-03-23T21:42:32.224Z,12.32
2023-03-23T21:45:02.692Z,12.10
2023-03-23T21:47:31.793Z,15.02
2023-03-23T21:50:02.272Z,14.98
2023-03-23T21:52:33.158Z,15.40
2023-03-23T21:55:02.949Z,15.88
2023-03-23T21:57:31.821Z,17.77
2023-03-23T21:59:59.987Z,13.80
2023-03-23T22:02:29.711Z,14.10
2023-03-23T22:04:58.229Z,16.83
2023-03-23T22:07:27.930Z,14.55
2023-03-23T22:10:01.207Z,13.95
2023-03-23T22:12:29.690Z,13.07
2023-03-23T22:14:57.908Z,18.05
2023-03-23T22:17:26.526Z,16.33
2023-03-23T22:19:54.771Z,13.07
2023-03-23T22:22:23.265Z,12.60
2023-03-23T22:24:52.641Z,10.57
2023-03-23T22:27:22.301Z,15.18
2023-03-23T22:29:52.009Z,15.35
2023-03-23T22:32:20.645Z,11.27
2023-03-23T22:34:49.184Z,8.75
2023-03-23T22:37:18.664Z,11.13
2023-03-23T22:39:47.105Z,15.23
2023-03-23T22:42:15.438Z,11.00
2023-03-23T22:44:45.295Z,10.07
2023-03-23T22:47:13.893Z,9.65
2023-03-23T22:49:42.157Z,10.07
2023-03-23T22:52:10.971Z,8.32
2023-03-23T22:54:39.721Z,10.55
2023-03-23T22:57:08.205Z,10.40
2023-03-23T22:59:36.487Z,11.50
2023-03-23T23:02:06.516Z,10.57
2023-03-23T23:04:34.920Z,10.77
2023-03-23T23:07:12.615Z,8.55
2023-03-23T23:09:42.659Z,13.20
2023-03-23T23:12:14.335Z,8.07
2023-03-23T23:14:44.914Z,10.52
2023-03-23T23:17:14.551Z,7.97
2023-03-23T23:19:43.446Z,7.40
2023-03-23T23:22:18.839Z,5.68
2023-03-23T23:24:48.281Z,8.13
2023-03-23T23:27:16.686Z,12.70
2023-03-23T23:29:45.053Z,8.68
2023-03-23T23:32:14.835Z,8.43
2023-03-23T23:34:43.254Z,10.65
2023-03-23T23:37:11.527Z,9.13
2023-03-23T23:39:41.306Z,13.95
2023-03-23T23:42:09.789Z,16.48
2023-03-23T23:44:38.074Z,17.95
2023-03-23T23:47:06.786Z,12.65
2023-03-23T23:49:36.813Z,14.57
2023-03-23T23:52:06.992Z,19.10
2023-03-23T23:54:37.506Z,15.57
2023-03-23T23:57:06.806Z,13.50
2023-03-23T23:59:36.072Z,12.45
